sensor_id;sensor_type;location;lat;lon;timestamp;pressure;altitude;pressure_sealevel;temperature;humidity
57668;BME280;43499;52.366;12.912;2023-04-05T00:00:31;102184.03;;;-0.17;77.62
57668;BME280;43499;52.366;12.912;2023-04-05T00:01:33;102202.03;;;-0.05;78.45
57668;BME280;43499;52.366;12.912;2023-04-05T00:02:34;102211.44;;;0.00;78.47
57668;BME280;43499;52.366;12.912;2023-04-05T00:03:36;102216.59;;;0.00;77.70
57668;BME280;43499;52.366;12.912;2023-04-05T00:04:37;102200.16;;;-0.06;77.50
57668;BME280;43499;52.366;12.912;2023-04-05T00:05:50;102192.91;;;-0.09;77.24
57668;BME280;43499;52.366;12.912;2023-04-05T00:06:54;102198.53;;;-0.11;76.68
57668;BME280;43499;52.366;12.912;2023-04-05T00:07:57;102175.13;;;-0.24;77.53
57668;BME280;43499;52.366;12.912;2023-04-05T00:09:01;102202.28;;;-0.09;77.46
57668;BME280;43499;52.366;12.912;2023-04-05T00:10:03;102204.41;;;-0.07;77.94
57668;BME280;43499;52.366;12.912;2023-04-05T00:11:04;102184.97;;;-0.22;77.17
57668;BME280;43499;52.366;12.912;2023-04-05T00:12:05;102203.72;;;-0.11;77.53
57668;BME280;43499;52.366;12.912;2023-04-05T00:13:06;102201.38;;;-0.10;77.60
57668;BME280;43499;52.366;12.912;2023-04-05T00:14:08;102200.66;;;-0.09;77.49
57668;BME280;43499;52.366;12.912;2023-04-05T00:15:09;102202.28;;;-0.09;77.48
57668;BME280;43499;52.366;12.912;2023-04-05T00:16:10;102201.88;;;-0.12;78.22
57668;BME280;43499;52.366;12.912;2023-04-05T00:17:12;102199.31;;;-0.18;78.92
57668;BME280;43499;52.366;12.912;2023-04-05T00:18:13;102191.59;;;-0.24;78.55
57668;BME280;43499;52.366;12.912;2023-04-05T00:19:21;102181.00;;;-0.25;78.55
57668;BME280;43499;52.366;12.912;2023-04-05T00:20:22;102199.06;;;-0.20;78.43
57668;BME280;43499;52.366;12.912;2023-04-05T00:21:23;102195.06;;;-0.18;78.65
57668;BME280;43499;52.366;12.912;2023-04-05T00:22:24;102184.09;;;-0.28;78.88
57668;BME280;43499;52.366;12.912;2023-04-05T00:23:25;102183.66;;;-0.37;78.67
57668;BME280;43499;52.366;12.912;2023-04-05T00:24:27;102183.63;;;-0.31;79.02
57668;BME280;43499;52.366;12.912;2023-04-05T00:25:29;102192.56;;;-0.29;79.24
57668;BME280;43499;52.366;12.912;2023-04-05T00:26:30;102201.94;;;-0.24;79.16
57668;BME280;43499;52.366;12.912;2023-04-05T00:27:32;102185.69;;;-0.23;79.01
57668;BME280;43499;52.366;12.912;2023-04-05T00:28:33;102192.06;;;-0.26;78.63
57668;BME280;43499;52.366;12.912;2023-04-05T00:29:34;102199.09;;;-0.25;78.72
57668;BME280;43499;52.366;12.912;2023-04-05T00:30:37;102193.47;;;-0.28;78.50
57668;BME280;43499;52.366;12.912;2023-04-05T00:31:38;102198.88;;;-0.27;78.69
57668;BME280;43499;52.366;12.912;2023-04-05T00:32:39;102196.53;;;-0.25;78.35
57668;BME280;43499;52.366;12.912;2023-04-05T00:33:40;102182.94;;;-0.36;78.15
57668;BME280;43499;52.366;12.912;2023-04-05T00:34:41;102195.84;;;-0.30;77.68
57668;BME280;43499;52.366;12.912;2023-04-05T00:35:42;102186.03;;;-0.38;77.88
57668;BME280;43499;52.366;12.912;2023-04-05T00:36:43;102198.91;;;-0.33;77.67
57668;BME280;43499;52.366;12.912;2023-04-05T00:37:44;102191.19;;;-0.38;77.25
57668;BME280;43499;52.366;12.912;2023-04-05T00:38:47;102185.56;;;-0.41;77.20
57668;BME280;43499;52.366;12.912;2023-04-05T00:39:49;102193.53;;;-0.40;77.08
57668;BME280;43499;52.366;12.912;2023-04-05T00:40:50;102185.56;;;-0.41;76.89
57668;BME280;43499;52.366;12.912;2023-04-05T00:41:51;102191.69;;;-0.41;76.22
57668;BME280;43499;52.366;12.912;2023-04-05T00:42:52;102170.59;;;-0.50;76.37
57668;BME280;43499;52.366;12.912;2023-04-05T00:43:53;102170.63;;;-0.55;76.39
57668;BME280;43499;52.366;12.912;2023-04-05T00:44:54;102173.91;;;-0.56;76.10
57668;BME280;43499;52.366;12.912;2023-04-05T00:45:55;102179.97;;;-0.50;76.21
57668;BME280;43499;52.366;12.912;2023-04-05T00:46:56;102189.84;;;-0.48;76.10
57668;BME280;43499;52.366;12.912;2023-04-05T00:47:58;102173.19;;;-0.55;76.09
57668;BME280;43499;52.366;12.912;2023-04-05T00:48:59;102187.97;;;-0.49;75.97
57668;BME280;43499;52.366;12.912;2023-04-05T00:50:00;102185.63;;;-0.53;75.83
57668;BME280;43499;52.366;12.912;2023-04-05T00:51:01;102193.13;;;-0.49;75.46
57668;BME280;43499;52.366;12.912;2023-04-05T00:52:03;102184.22;;;-0.51;75.19
57668;BME280;43499;52.366;12.912;2023-04-05T00:53:04;102182.56;;;-0.50;74.34
57668;BME280;43499;52.366;12.912;2023-04-05T00:54:05;102177.38;;;-0.50;74.60
57668;BME280;43499;52.366;12.912;2023-04-05T00:55:07;102185.59;;;-0.47;74.28
57668;BME280;43499;52.366;12.912;2023-04-05T00:56:09;102179.25;;;-0.49;74.40
57668;BME280;43499;52.366;12.912;2023-04-05T00:57:13;102185.38;;;-0.49;74.66
57668;BME280;43499;52.366;12.912;2023-04-05T00:58:15;102185.13;;;-0.50;74.41
57668;BME280;43499;52.366;12.912;2023-04-05T00:59:19;102172.03;;;-0.57;74.50
57668;BME280;43499;52.366;12.912;2023-04-05T01:00:21;102185.38;;;-0.49;74.76
57668;BME280;43499;52.366;12.912;2023-04-05T01:01:24;102176.94;;;-0.53;74.77
57668;BME280;43499;52.366;12.912;2023-04-05T01:02:35;102186.34;;;-0.54;74.23
57668;BME280;43499;52.366;12.912;2023-04-05T01:03:42;102180.94;;;-0.55;74.14
57668;BME280;43499;52.366;12.912;2023-04-05T01:04:47;102175.09;;;-0.60;74.11
57668;BME280;43499;52.366;12.912;2023-04-05T01:06:15;102182.81;;;-0.54;74.61
57668;BME280;43499;52.366;12.912;2023-04-05T01:07:24;102173.22;;;-0.61;74.61
57668;BME280;43499;52.366;12.912;2023-04-05T01:08:56;102170.66;;;-0.61;75.46
57668;BME280;43499;52.366;12.912;2023-04-05T01:10:00;102177.69;;;-0.60;76.02
57668;BME280;43499;52.366;12.912;2023-04-05T01:11:05;102168.78;;;-0.68;75.51
57668;BME280;43499;52.366;12.912;2023-04-05T01:12:08;102173.72;;;-0.64;75.21
57668;BME280;43499;52.366;12.912;2023-04-05T01:13:09;102162.69;;;-0.68;75.37
57668;BME280;43499;52.366;12.912;2023-04-05T01:14:10;102178.16;;;-0.63;76.07
57668;BME280;43499;52.366;12.912;2023-04-05T01:15:12;102163.41;;;-0.69;76.53
57668;BME280;43499;52.366;12.912;2023-04-05T01:16:13;102179.34;;;-0.66;76.13
57668;BME280;43499;52.366;12.912;2023-04-05T01:17:16;102170.94;;;-0.76;76.63
57668;BME280;43499;52.366;12.912;2023-04-05T01:18:21;102163.00;;;-0.84;77.54
57668;BME280;43499;52.366;12.912;2023-04-05T01:19:27;102179.38;;;-0.78;77.67
57668;BME280;43499;52.366;12.912;2023-04-05T01:20:35;102174.94;;;-0.79;78.07
57668;BME280;43499;52.366;12.912;2023-04-05T01:22:07;102176.13;;;-0.82;78.46
57668;BME280;43499;52.366;12.912;2023-04-05T01:23:37;102180.59;;;-0.87;78.49
57668;BME280;43499;52.366;12.912;2023-04-05T01:24:58;102168.63;;;-0.92;78.27
57668;BME280;43499;52.366;12.912;2023-04-05T01:29:44;102178.72;;;-0.88;77.69
57668;BME280;43499;52.366;12.912;2023-04-05T01:30:55;102174.75;;;-0.91;77.52
57668;BME280;43499;52.366;12.912;2023-04-05T01:32:14;102176.84;;;-0.89;77.38
57668;BME280;43499;52.366;12.912;2023-04-05T01:34:48;102176.84;;;-0.89;77.28
57668;BME280;43499;52.366;12.912;2023-04-05T01:37:05;102174.25;;;-0.89;77.24
57668;BME280;43499;52.366;12.912;2023-04-05T01:38:10;102172.41;;;-0.96;77.09
57668;BME280;43499;52.366;12.912;2023-04-05T01:39:14;102181.81;;;-0.96;77.64
57668;BME280;43499;52.366;12.912;2023-04-05T01:40:18;102174.56;;;-0.99;77.72
57668;BME280;43499;52.366;12.912;2023-04-05T01:41:20;102182.53;;;-1.03;78.03
57668;BME280;43499;52.366;12.912;2023-04-05T01:42:23;102176.69;;;-1.07;78.26
57668;BME280;43499;52.366;12.912;2023-04-05T01:43:25;102175.50;;;-1.04;78.41
57668;BME280;43499;52.366;12.912;2023-04-05T01:44:27;102167.53;;;-1.11;78.31
57668;BME280;43499;52.366;12.912;2023-04-05T01:45:29;102159.34;;;-1.20;78.66
57668;BME280;43499;52.366;12.912;2023-04-05T01:46:31;102178.31;;;-1.14;78.98
57668;BME280;43499;52.366;12.912;2023-04-05T01:47:32;102177.19;;;-1.16;79.16
57668;BME280;43499;52.366;12.912;2023-04-05T01:48:33;102172.25;;;-1.20;79.06
57668;BME280;43499;52.366;12.912;2023-04-05T01:49:34;102169.88;;;-1.18;79.36
57668;BME280;43499;52.366;12.912;2023-04-05T01:50:36;102167.09;;;-1.20;79.58
57668;BME280;43499;52.366;12.912;2023-04-05T01:51:37;102154.41;;;-1.24;79.50
57668;BME280;43499;52.366;12.912;2023-04-05T01:52:41;102174.34;;;-1.17;80.35
57668;BME280;43499;52.366;12.912;2023-04-05T01:53:42;102158.66;;;-1.25;80.07
57668;BME280;43499;52.366;12.912;2023-04-05T01:54:43;102163.09;;;-1.18;79.98
57668;BME280;43499;52.366;12.912;2023-04-05T01:55:45;102168.00;;;-1.14;79.68
57668;BME280;43499;52.366;12.912;2023-04-05T01:56:46;102169.66;;;-1.14;79.86
57668;BME280;43499;52.366;12.912;2023-04-05T01:57:47;102160.75;;;-1.22;79.92
57668;BME280;43499;52.366;12.912;2023-04-05T01:58:48;102149.28;;;-1.30;79.81
57668;BME280;43499;52.366;12.912;2023-04-05T01:59:49;102162.16;;;-1.24;80.44
57668;BME280;43499;52.366;12.912;2023-04-05T02:00:53;102153.50;;;-1.30;79.90
57668;BME280;43499;52.366;12.912;2023-04-05T02:01:54;102149.28;;;-1.30;80.55
57668;BME280;43499;52.366;12.912;2023-04-05T02:02:55;102157.94;;;-1.23;80.45
57668;BME280;43499;52.366;12.912;2023-04-05T02:03:56;102156.56;;;-1.27;80.75
57668;BME280;43499;52.366;12.912;2023-04-05T02:05:00;102153.25;;;-1.32;80.49
57668;BME280;43499;52.366;12.912;2023-04-05T02:06:01;102162.16;;;-1.30;80.90
57668;BME280;43499;52.366;12.912;2023-04-05T02:07:02;102161.94;;;-1.31;80.93
57668;BME280;43499;52.366;12.912;2023-04-05T02:08:03;102154.69;;;-1.34;81.22
57668;BME280;43499;52.366;12.912;2023-04-05T02:09:04;102163.34;;;-1.33;80.92
57668;BME280;43499;52.366;12.912;2023-04-05T02:10:05;102146.03;;;-1.46;81.23
57668;BME280;43499;52.366;12.912;2023-04-05T02:11:07;102142.28;;;-1.48;81.28
57668;BME280;43499;52.366;12.912;2023-04-05T02:12:08;102149.78;;;-1.44;81.00
57668;BME280;43499;52.366;12.912;2023-04-05T02:13:09;102157.50;;;-1.44;81.16
57668;BME280;43499;52.366;12.912;2023-04-05T02:14:10;102146.97;;;-1.51;81.29
57668;BME280;43499;52.366;12.912;2023-04-05T02:15:11;102159.38;;;-1.43;81.20
57668;BME280;43499;52.366;12.912;2023-04-05T02:16:12;102150.69;;;-1.43;81.08
57668;BME280;43499;52.366;12.912;2023-04-05T02:17:13;102133.84;;;-1.52;80.64
57668;BME280;43499;52.366;12.912;2023-04-05T02:18:15;102146.72;;;-1.41;80.81
57668;BME280;43499;52.366;12.912;2023-04-05T02:19:22;102162.44;;;-1.34;80.72
57668;BME280;43499;52.366;12.912;2023-04-05T02:20:23;102159.16;;;-1.33;80.71
57668;BME280;43499;52.366;12.912;2023-04-05T02:21:25;102146.00;;;-1.40;80.44
57668;BME280;43499;52.366;12.912;2023-04-05T02:22:27;102158.19;;;-1.33;80.95
57668;BME280;43499;52.366;12.912;2023-04-05T02:23:29;102162.66;;;-1.32;81.10
57668;BME280;43499;52.366;12.912;2023-04-05T02:24:30;102161.25;;;-1.36;81.02
57668;BME280;43499;52.366;12.912;2023-04-05T02:25:31;102161.28;;;-1.42;80.77
57668;BME280;43499;52.366;12.912;2023-04-05T02:26:32;102159.16;;;-1.38;80.94
57668;BME280;43499;52.366;12.912;2023-04-05T02:27:34;102153.53;;;-1.42;80.59
57668;BME280;43499;52.366;12.912;2023-04-05T02:28:35;102166.91;;;-1.38;81.16
57668;BME280;43499;52.366;12.912;2023-04-05T02:29:36;102154.94;;;-1.44;81.07
57668;BME280;43499;52.366;12.912;2023-04-05T02:30:37;102163.84;;;-1.42;81.54
57668;BME280;43499;52.366;12.912;2023-04-05T02:31:38;102163.84;;;-1.42;81.65
57668;BME280;43499;52.366;12.912;2023-04-05T02:32:40;102158.69;;;-1.42;81.70
57668;BME280;43499;52.366;12.912;2023-04-05T02:33:45;102161.97;;;-1.43;81.84
57668;BME280;43499;52.366;12.912;2023-04-05T02:34:48;102165.25;;;-1.44;81.99
57668;BME280;43499;52.366;12.912;2023-04-05T02:35:52;102150.97;;;-1.47;81.56
57668;BME280;43499;52.366;12.912;2023-04-05T02:36:53;102159.63;;;-1.47;81.26
57668;BME280;43499;52.366;12.912;2023-04-05T02:37:54;102161.50;;;-1.46;81.23
57668;BME280;43499;52.366;12.912;2023-04-05T02:38:56;102158.22;;;-1.50;81.07
57668;BME280;43499;52.366;12.912;2023-04-05T02:39:57;102156.81;;;-1.48;81.00
57668;BME280;43499;52.366;12.912;2023-04-05T02:40:58;102158.00;;;-1.46;81.20
57668;BME280;43499;52.366;12.912;2023-04-05T02:41:59;102156.34;;;-1.46;81.00
57668;BME280;43499;52.366;12.912;2023-04-05T02:43:00;102163.59;;;-1.49;81.17
57668;BME280;43499;52.366;12.912;2023-04-05T02:44:01;102142.53;;;-1.52;81.33
57668;BME280;43499;52.366;12.912;2023-04-05T02:45:05;102154.00;;;-1.44;81.24
57668;BME280;43499;52.366;12.912;2023-04-05T02:46:07;102153.06;;;-1.45;81.72
57668;BME280;43499;52.366;12.912;2023-04-05T02:47:12;102149.06;;;-1.43;82.04
57668;BME280;43499;52.366;12.912;2023-04-05T02:48:18;102147.69;;;-1.46;81.76
57668;BME280;43499;52.366;12.912;2023-04-05T02:49:20;102146.72;;;-1.52;82.22
57668;BME280;43499;52.366;12.912;2023-04-05T02:50:21;102149.78;;;-1.49;82.07
57668;BME280;43499;52.366;12.912;2023-04-05T02:51:23;102149.56;;;-1.51;82.43
57668;BME280;43499;52.366;12.912;2023-04-05T02:52:24;102157.75;;;-1.53;82.64
57668;BME280;43499;52.366;12.912;2023-04-05T02:53:25;102151.91;;;-1.58;82.85
57668;BME280;43499;52.366;12.912;2023-04-05T02:54:32;102136.91;;;-1.66;83.14
57668;BME280;43499;52.366;12.912;2023-04-05T02:55:36;102151.66;;;-1.60;83.13
57668;BME280;43499;52.366;12.912;2023-04-05T02:56:38;102145.56;;;-1.60;82.56
57668;BME280;43499;52.366;12.912;2023-04-05T02:57:45;102155.88;;;-1.60;82.69
57668;BME280;43499;52.366;12.912;2023-04-05T02:58:58;102150.28;;;-1.63;83.04
57668;BME280;43499;52.366;12.912;2023-04-05T03:00:00;102148.13;;;-1.60;82.44
57668;BME280;43499;52.366;12.912;2023-04-05T03:01:03;102147.91;;;-1.62;82.92
57668;BME280;43499;52.366;12.912;2023-04-05T03:02:08;102149.56;;;-1.57;82.61
57668;BME280;43499;52.366;12.912;2023-04-05T03:03:10;102155.16;;;-1.59;82.47
57668;BME280;43499;52.366;12.912;2023-04-05T03:04:14;102147.22;;;-1.61;82.71
57668;BME280;43499;52.366;12.912;2023-04-05T03:05:17;102152.84;;;-1.63;82.61
57668;BME280;43499;52.366;12.912;2023-04-05T03:06:21;102140.66;;;-1.70;82.84
57668;BME280;43499;52.366;12.912;2023-04-05T03:07:23;102157.53;;;-1.61;82.69
57668;BME280;43499;52.366;12.912;2023-04-05T03:08:25;102148.16;;;-1.72;82.26
57668;BME280;43499;52.366;12.912;2023-04-05T03:09:34;102146.53;;;-1.65;82.74
57668;BME280;43499;52.366;12.912;2023-04-05T03:10:41;102152.38;;;-1.66;82.26
57668;BME280;43499;52.366;12.912;2023-04-05T03:11:48;102153.31;;;-1.66;82.44
57668;BME280;43499;52.366;12.912;2023-04-05T03:12:50;102150.03;;;-1.65;82.39
57668;BME280;43499;52.366;12.912;2023-04-05T03:13:55;102147.00;;;-1.68;82.42
57668;BME280;43499;52.366;12.912;2023-04-05T03:15:07;102148.41;;;-1.64;82.20
57668;BME280;43499;52.366;12.912;2023-04-05T03:16:13;102150.50;;;-1.67;81.83
57668;BME280;43499;52.366;12.912;2023-04-05T03:17:16;102148.16;;;-1.72;82.39
57668;BME280;43499;52.366;12.912;2023-04-05T03:18:21;102142.28;;;-1.76;82.24
57668;BME280;43499;52.366;12.912;2023-04-05T03:19:24;102153.31;;;-1.77;82.42
57668;BME280;43499;52.366;12.912;2023-04-05T03:20:29;102147.22;;;-1.78;82.42
57668;BME280;43499;52.366;12.912;2023-04-05T03:21:34;102155.66;;;-1.79;82.18
57668;BME280;43499;52.366;12.912;2023-04-05T03:22:41;102152.16;;;-1.79;81.74
57668;BME280;43499;52.366;12.912;2023-04-05T03:23:43;102143.25;;;-1.81;81.81
57668;BME280;43499;52.366;12.912;2023-04-05T03:24:48;102138.78;;;-1.88;81.83
57668;BME280;43499;52.366;12.912;2023-04-05T03:26:00;102153.31;;;-1.83;81.94
57668;BME280;43499;52.366;12.912;2023-04-05T03:27:05;102145.13;;;-1.86;82.12
57668;BME280;43499;52.366;12.912;2023-04-05T03:28:12;102133.63;;;-1.99;81.99
57668;BME280;43499;52.366;12.912;2023-04-05T03:29:18;102140.91;;;-2.03;82.75
57668;BME280;43499;52.366;12.912;2023-04-05T03:30:20;102140.41;;;-1.94;82.85
57668;BME280;43499;52.366;12.912;2023-04-05T03:31:28;102144.44;;;-1.96;82.97
57668;BME280;43499;52.366;12.912;2023-04-05T03:32:32;102117.22;;;-2.11;83.15
57668;BME280;43499;52.366;12.912;2023-04-05T03:33:42;102147.22;;;-1.95;83.45
57668;BME280;43499;52.366;12.912;2023-04-05T03:34:43;102144.66;;;-1.95;83.34
57668;BME280;43499;52.366;12.912;2023-04-05T03:35:47;102150.50;;;-2.02;83.71
57668;BME280;43499;52.366;12.912;2023-04-05T03:36:48;102146.75;;;-2.04;83.57
57668;BME280;43499;52.366;12.912;2023-04-05T03:37:59;102150.97;;;-2.04;83.93
57668;BME280;43499;52.366;12.912;2023-04-05T03:39:00;102150.03;;;-2.05;84.03
57668;BME280;43499;52.366;12.912;2023-04-05T03:40:02;102147.44;;;-2.05;83.99
57668;BME280;43499;52.366;12.912;2023-04-05T03:41:04;102139.00;;;-2.04;84.63
57668;BME280;43499;52.366;12.912;2023-04-05T03:42:06;102147.00;;;-2.02;84.19
57668;BME280;43499;52.366;12.912;2023-04-05T03:43:07;102146.53;;;-1.99;84.11
57668;BME280;43499;52.366;12.912;2023-04-05T03:44:08;102148.63;;;-1.97;84.37
57668;BME280;43499;52.366;12.912;2023-04-05T03:45:09;102145.81;;;-1.98;84.64
57668;BME280;43499;52.366;12.912;2023-04-05T03:46:10;102138.78;;;-1.99;83.98
57668;BME280;43499;52.366;12.912;2023-04-05T03:47:11;102141.13;;;-1.95;83.88
57668;BME280;43499;52.366;12.912;2023-04-05T03:48:14;102143.00;;;-1.94;83.43
57668;BME280;43499;52.366;12.912;2023-04-05T03:49:21;102119.56;;;-2.07;84.12
57668;BME280;43499;52.366;12.912;2023-04-05T03:50:23;102140.19;;;-1.96;83.93
57668;BME280;43499;52.366;12.912;2023-04-05T03:51:24;102134.13;;;-1.96;84.32
57668;BME280;43499;52.366;12.912;2023-04-05T03:52:25;102129.41;;;-1.99;84.27
57668;BME280;43499;52.366;12.912;2023-04-05T03:53:27;102143.94;;;-1.94;84.41
57668;BME280;43499;52.366;12.912;2023-04-05T03:54:30;102126.13;;;-1.98;84.63
57668;BME280;43499;52.366;12.912;2023-04-05T03:55:33;102118.66;;;-2.02;84.41
57668;BME280;43499;52.366;12.912;2023-04-05T03:56:39;102132.47;;;-1.90;84.69
57668;BME280;43499;52.366;12.912;2023-04-05T03:57:48;102130.81;;;-1.90;84.80
57668;BME280;43499;52.366;12.912;2023-04-05T03:58:57;102132.47;;;-1.90;84.53
57668;BME280;43499;52.366;12.912;2023-04-05T04:00:02;102126.84;;;-1.88;84.45
57668;BME280;43499;52.366;12.912;2023-04-05T04:01:15;102126.38;;;-1.91;84.29
57668;BME280;43499;52.366;12.912;2023-04-05T04:02:16;102127.78;;;-1.87;83.67
57668;BME280;43499;52.366;12.912;2023-04-05T04:03:17;102116.53;;;-1.93;83.73
57668;BME280;43499;52.366;12.912;2023-04-05T04:04:21;102094.28;;;-2.04;83.92
57668;BME280;43499;52.366;12.912;2023-04-05T04:05:22;102080.44;;;-2.16;83.44
57668;BME280;43499;52.366;12.912;2023-04-05T04:06:27;102119.09;;;-1.93;83.81
57668;BME280;43499;52.366;12.912;2023-04-05T04:07:31;102124.03;;;-1.89;83.81
57668;BME280;43499;52.366;12.912;2023-04-05T04:08:32;102117.00;;;-1.90;83.54
57668;BME280;43499;52.366;12.912;2023-04-05T04:09:34;102112.53;;;-1.91;83.29
57668;BME280;43499;52.366;12.912;2023-04-05T04:10:40;102118.88;;;-1.89;83.57
57668;BME280;43499;52.366;12.912;2023-04-05T04:12:03;102115.13;;;-1.91;83.07
57668;BME280;43499;52.366;12.912;2023-04-05T04:13:04;102119.09;;;-1.93;83.47
57668;BME280;43499;52.366;12.912;2023-04-05T04:14:07;102133.16;;;-1.91;83.61
57668;BME280;43499;52.366;12.912;2023-04-05T04:15:27;102121.69;;;-1.93;83.28
57668;BME280;43499;52.366;12.912;2023-04-05T04:16:48;102126.38;;;-1.85;83.26
57668;BME280;43499;52.366;12.912;2023-04-05T04:17:56;102113.03;;;-1.88;82.66
57668;BME280;43499;52.366;12.912;2023-04-05T04:19:10;102120.06;;;-1.87;82.83
57668;BME280;43499;52.366;12.912;2023-04-05T04:20:19;102122.38;;;-1.83;82.53
57668;BME280;43499;52.366;12.912;2023-04-05T04:21:32;102121.22;;;-1.79;82.58
57668;BME280;43499;52.366;12.912;2023-04-05T04:22:56;102125.91;;;-1.77;82.87
57668;BME280;43499;52.366;12.912;2023-04-05T04:24:31;102114.41;;;-1.84;82.96
57668;BME280;43499;52.366;12.912;2023-04-05T04:25:42;102111.16;;;-1.83;83.31
57668;BME280;43499;52.366;12.912;2023-04-05T04:27:04;102120.75;;;-1.82;83.60
57668;BME280;43499;52.366;12.912;2023-04-05T04:28:20;102118.19;;;-1.82;83.50
57668;BME280;43499;52.366;12.912;2023-04-05T04:29:35;102087.00;;;-1.95;83.54
57668;BME280;43499;52.366;12.912;2023-04-05T04:31:05;102102.44;;;-1.78;83.58
57668;BME280;43499;52.366;12.912;2023-04-05T04:32:27;102110.66;;;-1.75;83.23
57668;BME280;43499;52.366;12.912;2023-04-05T04:34:02;102085.59;;;-1.88;83.10
57668;BME280;43499;52.366;12.912;2023-04-05T04:35:25;102106.91;;;-1.72;82.91
57668;BME280;43499;52.366;12.912;2023-04-05T04:36:33;102102.00;;;-1.70;82.86
57668;BME280;43499;52.366;12.912;2023-04-05T04:37:52;102121.22;;;-1.68;83.23
57668;BME280;43499;52.366;12.912;2023-04-05T04:39:05;102114.63;;;-1.72;83.00
57668;BME280;43499;52.366;12.912;2023-04-05T04:40:34;102111.84;;;-1.67;83.03
57668;BME280;43499;52.366;12.912;2023-04-05T04:42:01;102111.34;;;-1.65;82.61
57668;BME280;43499;52.366;12.912;2023-04-05T04:43:20;102116.75;;;-1.63;83.02
57668;BME280;43499;52.366;12.912;2023-04-05T04:44:48;102107.84;;;-1.65;83.09
57668;BME280;43499;52.366;12.912;2023-04-05T04:46:02;102110.19;;;-1.61;83.09
57668;BME280;43499;52.366;12.912;2023-04-05T04:47:14;102109.94;;;-1.57;83.08
57668;BME280;43499;52.366;12.912;2023-04-05T04:48:28;102108.06;;;-1.52;83.59
57668;BME280;43499;52.366;12.912;2023-04-05T04:49:44;102103.84;;;-1.52;83.58
57668;BME280;43499;52.366;12.912;2023-04-05T04:50:47;102093.75;;;-1.56;83.44
57668;BME280;43499;52.366;12.912;2023-04-05T04:51:49;102109.22;;;-1.45;83.36
57668;BME280;43499;52.366;12.912;2023-04-05T04:52:53;102106.41;;;-1.46;83.68
57668;BME280;43499;52.366;12.912;2023-04-05T04:53:54;102092.38;;;-1.54;83.18
57668;BME280;43499;52.366;12.912;2023-04-05T04:54:55;102099.38;;;-1.47;83.12
57668;BME280;43499;52.366;12.912;2023-04-05T04:55:56;102103.56;;;-1.42;83.51
57668;BME280;43499;52.366;12.912;2023-04-05T04:56:57;102098.66;;;-1.41;83.82
57668;BME280;43499;52.366;12.912;2023-04-05T04:57:58;102103.56;;;-1.36;83.75
57668;BME280;43499;52.366;12.912;2023-04-05T04:58:59;102099.09;;;-1.37;84.13
57668;BME280;43499;52.366;12.912;2023-04-05T05:00:00;102110.84;;;-1.34;83.91
57668;BME280;43499;52.366;12.912;2023-04-05T05:01:06;102110.34;;;-1.31;83.94
57668;BME280;43499;52.366;12.912;2023-04-05T05:02:08;102097.00;;;-1.40;84.25
57668;BME280;43499;52.366;12.912;2023-04-05T05:03:11;102111.06;;;-1.32;84.46
57668;BME280;43499;52.366;12.912;2023-04-05T05:04:12;102099.56;;;-1.34;84.60
57668;BME280;43499;52.366;12.912;2023-04-05T05:05:15;102122.28;;;-1.26;84.61
57668;BME280;43499;52.366;12.912;2023-04-05T05:06:17;102117.84;;;-1.21;84.59
57668;BME280;43499;52.366;12.912;2023-04-05T05:07:19;102109.38;;;-1.20;84.10
57668;BME280;43499;52.366;12.912;2023-04-05T05:08:20;102107.53;;;-1.21;83.68
57668;BME280;43499;52.366;12.912;2023-04-05T05:09:21;102117.84;;;-1.16;83.96
57668;BME280;43499;52.366;12.912;2023-04-05T05:10:27;102108.66;;;-1.14;83.94
57668;BME280;43499;52.366;12.912;2023-04-05T05:11:34;102102.81;;;-1.18;83.48
57668;BME280;43499;52.366;12.912;2023-04-05T05:12:37;102117.78;;;-1.04;83.90
57668;BME280;43499;52.366;12.912;2023-04-05T05:13:38;102114.94;;;-1.00;83.45
57668;BME280;43499;52.366;12.912;2023-04-05T05:14:39;102116.56;;;-0.95;83.49
57668;BME280;43499;52.366;12.912;2023-04-05T05:15:40;102099.44;;;-1.00;83.30
57668;BME280;43499;52.366;12.912;2023-04-05T05:16:41;102117.22;;;-0.85;83.27
57668;BME280;43499;52.366;12.912;2023-04-05T05:17:42;102107.16;;;-0.89;83.36
57668;BME280;43499;52.366;12.912;2023-04-05T05:18:45;102118.66;;;-0.87;84.21
57668;BME280;43499;52.366;12.912;2023-04-05T05:19:48;102110.16;;;-0.80;84.04
57668;BME280;43499;52.366;12.912;2023-04-05T05:20:49;102110.16;;;-0.80;84.07
57668;BME280;43499;52.366;12.912;2023-04-05T05:21:51;102110.38;;;-0.79;84.04
57668;BME280;43499;52.366;12.912;2023-04-05T05:22:54;102117.66;;;-0.76;84.54
57668;BME280;43499;52.366;12.912;2023-04-05T05:23:55;102111.56;;;-0.76;84.39
57668;BME280;43499;52.366;12.912;2023-04-05T05:24:56;102103.34;;;-0.80;84.15
57668;BME280;43499;52.366;12.912;2023-04-05T05:25:57;102114.84;;;-0.78;84.23
57668;BME280;43499;52.366;12.912;2023-04-05T05:26:59;102113.25;;;-0.83;84.06
57668;BME280;43499;52.366;12.912;2023-04-05T05:28:00;102125.16;;;-0.78;84.01
57668;BME280;43499;52.366;12.912;2023-04-05T05:29:02;102115.78;;;-0.77;84.02
57668;BME280;43499;52.366;12.912;2023-04-05T05:30:05;102095.91;;;-0.89;83.83
57668;BME280;43499;52.366;12.912;2023-04-05T05:31:07;102110.38;;;-0.79;83.74
57668;BME280;43499;52.366;12.912;2023-04-05T05:32:10;102120.72;;;-0.79;83.72
57668;BME280;43499;52.366;12.912;2023-04-05T05:33:15;102120.97;;;-0.83;83.14
57668;BME280;43499;52.366;12.912;2023-04-05T05:34:18;102110.19;;;-0.86;83.11
57668;BME280;43499;52.366;12.912;2023-04-05T05:35:24;102119.09;;;-0.78;83.09
57668;BME280;43499;52.366;12.912;2023-04-05T05:36:26;102119.31;;;-0.82;82.71
57668;BME280;43499;52.366;12.912;2023-04-05T05:37:31;102115.56;;;-0.84;82.80
57668;BME280;43499;52.366;12.912;2023-04-05T05:38:32;102106.22;;;-0.89;82.61
57668;BME280;43499;52.366;12.912;2023-04-05T05:39:34;102118.16;;;-0.84;82.79
57668;BME280;43499;52.366;12.912;2023-04-05T05:40:36;102125.19;;;-0.83;82.86